createdAt,value
2019-01-30T00:00:45.772Z,37.10
2019-01-30T00:03:11.920Z,37.10
2019-01-30T00:05:38.075Z,36.90
2019-01-30T00:08:04.231Z,37.00
2019-01-30T00:10:30.382Z,37.10
2019-01-30T00:12:56.544Z,37.00
2019-01-30T00:15:22.697Z,36.90
2019-01-30T00:17:48.847Z,36.90
2019-01-30T00:20:14.996Z,37.00
2019-01-30T00:22:41.156Z,37.10
2019-01-30T00:25:07.304Z,37.00
2019-01-30T00:27:33.455Z,37.00
2019-01-30T00:30:04.001Z,37.00
2019-01-30T00:32:25.809Z,37.00
2019-01-30T00:34:51.969Z,36.80
2019-01-30T00:37:18.122Z,36.90
2019-01-30T00:39:44.273Z,37.00
2019-01-30T00:42:10.432Z,37.00
2019-01-30T00:44:36.581Z,36.90
2019-01-30T00:47:02.744Z,36.80
2019-01-30T00:49:28.895Z,36.90
2019-01-30T00:51:55.044Z,36.90
2019-01-30T00:54:21.219Z,36.80
2019-01-30T00:56:47.377Z,36.90
2019-01-30T00:59:13.531Z,37.00
2019-01-30T01:01:39.684Z,36.80
2019-01-30T01:04:05.834Z,37.00
2019-01-30T01:06:31.976Z,36.90
2019-01-30T01:08:58.116Z,36.90
2019-01-30T01:11:24.268Z,36.90
2019-01-30T01:13:50.417Z,36.90
2019-01-30T01:16:16.557Z,37.00
2019-01-30T01:18:42.703Z,36.90
2019-01-30T01:21:08.864Z,36.90
2019-01-30T01:23:35.017Z,36.90
2019-01-30T01:26:01.168Z,36.90
2019-01-30T01:28:27.324Z,36.90
2019-01-30T01:30:53.470Z,37.00
2019-01-30T01:33:19.608Z,37.10
2019-01-30T01:35:45.770Z,36.80
2019-01-30T01:38:11.925Z,36.80
2019-01-30T01:40:38.080Z,37.00
2019-01-30T01:43:04.237Z,36.90
2019-01-30T01:45:30.393Z,37.00
2019-01-30T01:47:56.545Z,36.90
2019-01-30T01:50:22.718Z,36.90
2019-01-30T01:52:48.868Z,36.80
2019-01-30T01:55:15.028Z,36.80
2019-01-30T01:57:41.181Z,36.80
2019-01-30T02:00:07.327Z,36.80
2019-01-30T02:02:33.477Z,36.70
2019-01-30T02:04:59.632Z,36.70
2019-01-30T02:07:25.784Z,36.90
2019-01-30T02:09:51.928Z,36.80
2019-01-30T02:12:18.086Z,36.80
2019-01-30T02:14:44.236Z,36.90
2019-01-30T02:17:10.383Z,36.80
2019-01-30T02:19:36.537Z,37.00
2019-01-30T02:22:02.692Z,36.90
2019-01-30T02:24:28.845Z,36.80
2019-01-30T02:26:54.991Z,36.80
2019-01-30T02:29:21.151Z,36.90
2019-01-30T02:31:47.304Z,36.70
2019-01-30T02:34:13.460Z,36.90
2019-01-30T02:36:39.605Z,36.90
2019-01-30T02:39:05.754Z,36.80
2019-01-30T02:41:31.896Z,36.80
2019-01-30T02:43:58.059Z,37.00
2019-01-30T02:46:24.221Z,36.90
2019-01-30T02:48:50.369Z,37.10
2019-01-30T02:51:16.560Z,36.90
2019-01-30T02:53:42.709Z,36.90
2019-01-30T02:56:09.036Z,36.90
2019-01-30T02:58:35.191Z,36.90
2019-01-30T03:01:01.341Z,36.90
2019-01-30T03:03:27.492Z,37.50
2019-01-30T03:05:53.644Z,36.90
2019-01-30T03:08:19.796Z,37.00
2019-01-30T03:10:45.942Z,37.00
2019-01-30T03:13:12.099Z,37.00
2019-01-30T03:15:38.271Z,36.90
2019-01-30T03:18:04.420Z,37.00
2019-01-30T03:20:30.564Z,36.90
2019-01-30T03:22:56.718Z,37.00
2019-01-30T03:25:22.878Z,37.00
2019-01-30T03:27:49.023Z,36.90
2019-01-30T03:30:15.198Z,36.90
2019-01-30T03:32:41.356Z,36.90
2019-01-30T03:35:07.515Z,37.00
2019-01-30T03:37:33.672Z,36.80
2019-01-30T03:39:59.815Z,37.00
2019-01-30T03:42:25.968Z,36.90
2019-01-30T03:44:52.121Z,36.90
2019-01-30T03:47:18.269Z,37.00
2019-01-30T03:49:44.420Z,37.00
2019-01-30T03:52:10.576Z,37.00
2019-01-30T03:54:36.735Z,36.90
2019-01-30T03:57:02.886Z,37.00
2019-01-30T03:59:29.034Z,36.90
2019-01-30T04:01:55.195Z,36.90
2019-01-30T04:04:21.358Z,36.90
2019-01-30T04:06:47.514Z,36.90
2019-01-30T04:09:13.861Z,36.80
2019-01-30T04:11:40.020Z,36.90
2019-01-30T04:14:06.965Z,37.30
2019-01-30T04:16:33.115Z,36.90
2019-01-30T04:18:59.269Z,36.90
2019-01-30T04:21:25.437Z,37.00
2019-01-30T04:23:51.586Z,37.00
2019-01-30T04:26:18.504Z,37.00
2019-01-30T04:28:44.656Z,37.00
2019-01-30T04:31:10.809Z,36.90
2019-01-30T04:33:36.969Z,36.90
2019-01-30T04:36:03.142Z,36.80
2019-01-30T04:38:30.060Z,37.00
2019-01-30T04:40:56.224Z,36.90
2019-01-30T04:43:22.381Z,36.90
2019-01-30T04:45:48.548Z,36.90
2019-01-30T04:48:14.701Z,36.80
2019-01-30T04:50:41.636Z,36.80
2019-01-30T04:53:07.795Z,36.80
2019-01-30T04:55:33.949Z,36.80
2019-01-30T04:58:00.098Z,36.70
2019-01-30T05:00:26.457Z,36.70
2019-01-30T05:02:52.612Z,36.80
2019-01-30T05:05:18.770Z,36.80
2019-01-30T05:07:44.916Z,36.80
2019-01-30T05:10:11.071Z,36.80
2019-01-30T05:12:37.217Z,36.80
2019-01-30T05:15:03.379Z,36.90
2019-01-30T05:17:29.542Z,36.80
2019-01-30T05:19:55.696Z,36.80
2019-01-30T05:22:21.859Z,36.80
2019-01-30T05:24:48.013Z,36.80
2019-01-30T05:27:14.171Z,36.80
2019-01-30T05:29:40.328Z,36.80
2019-01-30T05:32:06.480Z,36.80
2019-01-30T05:34:32.633Z,36.80
2019-01-30T05:36:58.793Z,36.60
2019-01-30T05:39:24.957Z,36.70
2019-01-30T05:41:51.127Z,36.60
2019-01-30T05:44:17.289Z,36.60
2019-01-30T05:46:43.453Z,36.70
2019-01-30T05:49:09.611Z,36.70
2019-01-30T05:51:36.546Z,36.80
2019-01-30T05:54:02.701Z,36.80
2019-01-30T05:56:28.849Z,36.50
2019-01-30T05:58:55.003Z,36.60
2019-01-30T06:01:21.154Z,36.70
2019-01-30T06:03:48.082Z,36.40
2019-01-30T06:06:14.226Z,36.50
2019-01-30T06:08:40.386Z,36.70
2019-01-30T06:11:06.536Z,36.60
2019-01-30T06:13:32.700Z,36.70
2019-01-30T06:15:58.848Z,36.70
2019-01-30T06:18:24.996Z,36.50
2019-01-30T06:20:51.148Z,36.60
2019-01-30T06:23:17.305Z,36.60
2019-01-30T06:25:43.461Z,36.60
2019-01-30T06:28:10.401Z,36.70
2019-01-30T06:30:36.564Z,36.60
2019-01-30T06:33:02.725Z,36.60
2019-01-30T06:35:28.868Z,36.70
2019-01-30T06:37:55.032Z,36.70
2019-01-30T06:40:21.179Z,36.60
2019-01-30T06:42:47.364Z,36.50
2019-01-30T06:45:13.517Z,36.60
2019-01-30T06:47:39.665Z,36.50
2019-01-30T06:50:05.825Z,36.60
2019-01-30T06:52:31.973Z,36.50
2019-01-30T06:54:58.918Z,37.40
2019-01-30T06:57:25.065Z,36.70
2019-01-30T06:59:51.211Z,36.50
2019-01-30T07:02:17.368Z,36.60
2019-01-30T07:04:43.555Z,36.60
2019-01-30T07:07:09.713Z,36.70
2019-01-30T07:09:35.885Z,36.60
2019-01-30T07:12:02.039Z,36.60
2019-01-30T07:14:28.201Z,36.50
2019-01-30T07:16:54.348Z,36.50
2019-01-30T07:19:20.506Z,36.70
2019-01-30T07:21:47.428Z,36.70
2019-01-30T07:24:13.627Z,36.70
2019-01-30T07:26:39.779Z,37.30
2019-01-30T07:29:05.930Z,36.60
2019-01-30T07:31:32.081Z,36.50
2019-01-30T07:33:58.233Z,36.70
2019-01-30T07:36:24.390Z,36.60
2019-01-30T07:38:50.539Z,36.70
2019-01-30T07:41:16.709Z,36.70
2019-01-30T07:43:42.862Z,36.60
2019-01-30T07:46:09.023Z,36.60
2019-01-30T07:48:35.949Z,36.70
2019-01-30T07:51:02.141Z,36.70
2019-01-30T07:53:29.229Z,36.50
2019-01-30T07:55:55.396Z,36.50
2019-01-30T07:58:21.572Z,36.50
2019-01-30T08:00:47.734Z,36.60
2019-01-30T08:03:13.880Z,36.50
2019-01-30T08:05:40.048Z,36.60
2019-01-30T08:08:06.206Z,36.60
2019-01-30T08:10:32.379Z,36.50
2019-01-30T08:12:58.524Z,36.60
2019-01-30T08:15:24.696Z,36.50
2019-01-30T08:17:50.851Z,36.50
2019-01-30T08:20:17.014Z,36.50
2019-01-30T08:22:43.307Z,36.50
2019-01-30T08:25:09.476Z,36.40
2019-01-30T08:27:35.831Z,36.50
2019-01-30T08:30:01.954Z,36.60
2019-01-30T08:32:28.258Z,37.20
2019-01-30T08:34:54.189Z,36.60
2019-01-30T08:37:20.338Z,36.50
2019-01-30T08:39:46.484Z,36.60
2019-01-30T08:42:13.403Z,36.50
2019-01-30T08:44:46.847Z,36.50
2019-01-30T08:47:05.745Z,36.60
2019-01-30T08:49:31.898Z,36.50
2019-01-30T08:51:58.072Z,36.50
2019-01-30T08:54:24.221Z,36.60
2019-01-30T08:56:53.452Z,36.50
2019-01-30T08:59:19.579Z,36.50
2019-01-30T09:01:45.750Z,36.50
2019-01-30T09:04:12.074Z,36.50
2019-01-30T09:06:38.215Z,36.60
2019-01-30T09:09:04.361Z,36.60
2019-01-30T09:11:30.514Z,36.60
2019-01-30T09:13:56.659Z,36.50
2019-01-30T09:16:22.805Z,36.50
2019-01-30T09:18:48.970Z,36.60
2019-01-30T09:21:15.111Z,36.60
2019-01-30T09:23:41.272Z,36.70
2019-01-30T09:26:07.416Z,36.70
2019-01-30T09:28:33.576Z,36.60
2019-01-30T09:30:59.769Z,36.60
2019-01-30T09:33:26.371Z,36.60
2019-01-30T09:35:52.126Z,36.60
2019-01-30T09:38:18.449Z,36.60
2019-01-30T09:40:45.364Z,36.80
2019-01-30T09:43:11.533Z,36.70
2019-01-30T09:45:37.691Z,36.60
2019-01-30T09:48:03.844Z,36.60
2019-01-30T09:50:29.992Z,36.70
2019-01-30T09:52:56.184Z,36.80
2019-01-30T09:55:22.341Z,36.70
2019-01-30T09:57:48.491Z,36.80
2019-01-30T10:00:14.644Z,36.70
2019-01-30T10:02:40.805Z,36.70
2019-01-30T10:05:06.966Z,36.80
2019-01-30T10:07:33.163Z,36.70
2019-01-30T10:09:59.308Z,37.40
2019-01-30T10:12:25.463Z,36.80
2019-01-30T10:14:51.633Z,36.80
2019-01-30T10:17:17.781Z,36.90
2019-01-30T10:19:43.941Z,36.90
2019-01-30T10:22:10.093Z,36.80
2019-01-30T10:24:36.277Z,36.90
2019-01-30T10:27:02.430Z,36.90
2019-01-30T10:29:28.611Z,36.90
2019-01-30T10:31:54.760Z,36.80
2019-01-30T10:34:20.914Z,36.90
2019-01-30T10:36:47.069Z,36.90
2019-01-30T10:39:13.217Z,37.00
2019-01-30T10:41:39.379Z,37.00
2019-01-30T10:44:09.329Z,37.00
2019-01-30T10:46:35.501Z,37.10
2019-01-30T10:49:01.661Z,37.10
2019-01-30T10:51:27.810Z,37.00
2019-01-30T10:53:53.964Z,37.10
2019-01-30T10:56:20.134Z,37.10
2019-01-30T10:58:46.335Z,37.10
2019-01-30T11:01:12.500Z,37.20
2019-01-30T11:03:38.657Z,37.10
2019-01-30T11:06:04.817Z,37.10
2019-01-30T11:08:30.964Z,37.20
2019-01-30T11:11:07.299Z,37.20
2019-01-30T11:13:24.093Z,37.20
2019-01-30T11:15:50.266Z,37.20
2019-01-30T11:18:16.425Z,37.20
2019-01-30T11:20:42.568Z,37.30
2019-01-30T11:23:08.729Z,37.20
2019-01-30T11:25:34.876Z,37.30
2019-01-30T11:28:01.035Z,37.20
2019-01-30T11:30:27.182Z,37.10
2019-01-30T11:32:55.420Z,37.20
2019-01-30T11:35:19.529Z,37.30
2019-01-30T11:37:45.782Z,37.30
2019-01-30T11:40:11.862Z,37.40
2019-01-30T11:42:38.015Z,37.30
2019-01-30T11:45:04.165Z,37.30
2019-01-30T11:47:30.328Z,37.40
2019-01-30T11:49:56.468Z,37.40
2019-01-30T11:52:23.400Z,37.40
2019-01-30T11:54:49.552Z,37.40
2019-01-30T11:57:15.727Z,37.40
2019-01-30T11:59:42.636Z,37.50
2019-01-30T12:02:08.782Z,37.40
2019-01-30T12:04:34.931Z,37.50
2019-01-30T12:07:01.085Z,37.40
2019-01-30T12:09:27.256Z,37.40
2019-01-30T12:11:53.406Z,37.50
2019-01-30T12:14:19.559Z,37.50
2019-01-30T12:16:45.696Z,37.60
2019-01-30T12:19:11.869Z,37.50
2019-01-30T12:21:38.015Z,37.50
2019-01-30T12:24:04.178Z,37.50
2019-01-30T12:26:30.331Z,37.50
2019-01-30T12:28:56.484Z,37.50
2019-01-30T12:31:22.637Z,37.70
2019-01-30T12:33:48.781Z,37.60
2019-01-30T12:36:14.942Z,37.60
2019-01-30T12:38:41.115Z,37.60
2019-01-30T12:41:07.259Z,37.60
2019-01-30T12:43:33.420Z,37.60
2019-01-30T12:45:59.579Z,37.70
2019-01-30T12:48:25.759Z,37.60
2019-01-30T12:50:51.913Z,37.70
2019-01-30T12:53:18.068Z,37.70
2019-01-30T12:55:44.278Z,37.80
2019-01-30T12:58:10.428Z,37.80
2019-01-30T13:00:36.576Z,37.80
2019-01-30T13:03:02.723Z,37.70
2019-01-30T13:05:28.890Z,37.70
2019-01-30T13:07:55.040Z,37.70
2019-01-30T13:10:21.215Z,37.80
2019-01-30T13:12:48.128Z,37.80
2019-01-30T13:15:14.282Z,37.70
2019-01-30T13:17:40.430Z,37.80
2019-01-30T13:20:06.579Z,37.80
2019-01-30T13:22:32.725Z,37.80
2019-01-30T13:24:58.888Z,37.90
2019-01-30T13:27:25.045Z,37.80
2019-01-30T13:29:51.257Z,37.80
2019-01-30T13:32:17.403Z,37.90
2019-01-30T13:34:48.889Z,37.80
2019-01-30T13:37:09.737Z,37.80
2019-01-30T13:39:36.652Z,37.90
2019-01-30T13:42:02.797Z,38.00
2019-01-30T13:44:28.955Z,38.00
2019-01-30T13:46:55.129Z,38.00
2019-01-30T13:49:21.280Z,37.90
2019-01-30T13:51:48.243Z,38.00
2019-01-30T13:54:14.390Z,38.00
2019-01-30T13:56:40.561Z,38.00
2019-01-30T13:59:06.756Z,38.10
2019-01-30T14:01:32.901Z,38.00
2019-01-30T14:03:59.055Z,38.00
2019-01-30T14:06:25.204Z,38.10
2019-01-30T14:08:57.080Z,38.10
2019-01-30T14:11:23.276Z,38.20
2019-01-30T14:13:49.572Z,38.10
2019-01-30T14:16:15.758Z,38.10
2019-01-30T14:18:41.908Z,38.20
2019-01-30T14:21:08.120Z,38.20
2019-01-30T14:23:34.254Z,38.20
2019-01-30T14:26:00.452Z,38.20
2019-01-30T14:28:26.582Z,38.20
2019-01-30T14:30:52.756Z,38.00
2019-01-30T14:33:18.925Z,38.10
2019-01-30T14:35:45.085Z,38.20
2019-01-30T14:38:11.240Z,38.30
2019-01-30T14:40:37.403Z,38.30
2019-01-30T14:43:03.610Z,38.30
2019-01-30T14:45:29.763Z,38.30
2019-01-30T14:47:55.922Z,38.20
2019-01-30T14:50:22.077Z,38.20
2019-01-30T14:52:48.283Z,38.20
2019-01-30T14:55:14.468Z,38.30
2019-01-30T14:57:40.630Z,38.30
2019-01-30T15:00:06.803Z,38.30
2019-01-30T15:02:33.134Z,38.30
2019-01-30T15:04:59.287Z,38.40
2019-01-30T15:07:29.036Z,38.40
2019-01-30T15:09:51.651Z,38.70
2019-01-30T15:12:17.831Z,38.40
2019-01-30T15:14:43.973Z,38.40
2019-01-30T15:17:10.142Z,38.40
2019-01-30T15:19:36.448Z,38.40
2019-01-30T15:22:02.605Z,38.40
2019-01-30T15:24:28.753Z,38.50
2019-01-30T15:26:54.908Z,38.50
2019-01-30T15:29:21.056Z,38.50
2019-01-30T15:31:47.215Z,38.50
2019-01-30T15:34:13.379Z,38.40
2019-01-30T15:36:39.697Z,38.50
2019-01-30T15:39:05.837Z,38.40
2019-01-30T15:41:31.975Z,38.60
2019-01-30T15:43:58.145Z,38.50
2019-01-30T15:46:25.077Z,38.60
2019-01-30T15:48:51.402Z,38.60
2019-01-30T15:51:17.553Z,38.40
2019-01-30T15:53:43.713Z,38.50
2019-01-30T15:56:09.879Z,38.60
2019-01-30T15:58:36.051Z,38.60
2019-01-30T16:01:02.201Z,38.70
2019-01-30T16:03:28.375Z,38.60
2019-01-30T16:05:54.518Z,38.70
2019-01-30T16:08:20.667Z,38.60
2019-01-30T16:10:46.864Z,38.60
2019-01-30T16:13:13.793Z,38.70
2019-01-30T16:15:39.944Z,38.60
2019-01-30T16:18:06.861Z,38.80
2019-01-30T16:20:33.016Z,38.70
2019-01-30T16:22:59.160Z,38.70
2019-01-30T16:25:25.938Z,38.70
2019-01-30T16:27:52.088Z,38.70
2019-01-30T16:30:18.256Z,38.80
2019-01-30T16:32:44.408Z,38.70
2019-01-30T16:35:10.621Z,38.60
2019-01-30T16:37:37.517Z,38.80
2019-01-30T16:40:03.688Z,38.80
2019-01-30T16:42:29.833Z,38.80
2019-01-30T16:44:55.992Z,38.90
2019-01-30T16:47:22.140Z,38.80
2019-01-30T16:49:48.300Z,38.90
2019-01-30T16:52:14.455Z,38.80
2019-01-30T16:54:40.620Z,38.80
2019-01-30T16:57:06.777Z,38.70
2019-01-30T16:59:32.932Z,38.80
2019-01-30T17:01:59.095Z,38.90
2019-01-30T17:04:25.244Z,38.80
2019-01-30T17:06:51.425Z,38.80
2019-01-30T17:09:17.580Z,38.80
2019-01-30T17:11:43.732Z,38.90
2019-01-30T17:14:09.892Z,38.90
2019-01-30T17:16:36.040Z,39.00
2019-01-30T17:19:02.179Z,38.90
2019-01-30T17:21:28.329Z,38.90
2019-01-30T17:23:57.142Z,38.80
2019-01-30T17:26:20.687Z,39.00
2019-01-30T17:28:46.848Z,39.00
2019-01-30T17:31:13.013Z,39.60
2019-01-30T17:33:39.169Z,39.00
2019-01-30T17:36:05.381Z,39.00
2019-01-30T17:38:31.541Z,39.00
2019-01-30T17:40:57.701Z,39.00
2019-01-30T17:43:23.856Z,39.00
2019-01-30T17:45:50.012Z,38.90
2019-01-30T17:48:16.940Z,39.00
2019-01-30T17:50:43.101Z,39.00
2019-01-30T17:53:09.249Z,39.00
2019-01-30T17:55:35.410Z,39.00
2019-01-30T17:58:01.600Z,39.00
2019-01-30T18:00:27.748Z,39.10
2019-01-30T18:02:53.905Z,39.10
2019-01-30T18:05:20.044Z,39.00
2019-01-30T18:07:46.207Z,39.00
2019-01-30T18:10:12.360Z,39.00
2019-01-30T18:12:38.529Z,39.00
2019-01-30T18:15:05.444Z,39.10
2019-01-30T18:17:31.616Z,39.10
2019-01-30T18:19:57.770Z,39.00
2019-01-30T18:22:23.955Z,39.00
2019-01-30T18:24:50.115Z,39.10
2019-01-30T18:27:16.420Z,39.10
2019-01-30T18:29:42.647Z,39.20
2019-01-30T18:32:08.793Z,39.10
2019-01-30T18:34:35.707Z,39.10
2019-01-30T18:37:01.863Z,39.10
2019-01-30T18:39:28.000Z,39.10
2019-01-30T18:41:54.166Z,39.20
2019-01-30T18:44:20.312Z,39.10
2019-01-30T18:46:46.484Z,39.20
2019-01-30T18:49:12.657Z,39.70
2019-01-30T18:51:38.802Z,39.10
2019-01-30T18:54:04.969Z,39.10
2019-01-30T18:56:31.130Z,39.10
2019-01-30T18:58:57.468Z,39.20
2019-01-30T19:01:23.678Z,39.20
2019-01-30T19:03:49.848Z,39.10
2019-01-30T19:06:15.998Z,39.10
2019-01-30T19:08:42.924Z,39.30
2019-01-30T19:11:09.097Z,39.10
2019-01-30T19:13:35.274Z,39.20
2019-01-30T19:16:01.453Z,39.20
2019-01-30T19:18:27.666Z,39.20
2019-01-30T19:20:53.821Z,39.20
2019-01-30T19:23:19.974Z,39.20
2019-01-30T19:25:46.116Z,39.30
2019-01-30T19:28:12.286Z,39.20
2019-01-30T19:30:38.428Z,39.20
2019-01-30T19:33:04.736Z,39.10
2019-01-30T19:35:30.890Z,39.20
2019-01-30T19:37:57.048Z,39.20
2019-01-30T19:40:23.208Z,39.30
2019-01-30T19:42:50.125Z,39.30
2019-01-30T19:45:16.291Z,39.30
2019-01-30T19:47:42.451Z,39.30
2019-01-30T19:50:08.622Z,39.30
2019-01-30T19:52:34.771Z,39.30
2019-01-30T19:55:00.945Z,39.30
2019-01-30T19:57:27.118Z,39.20
2019-01-30T19:59:53.307Z,39.30
2019-01-30T20:02:19.465Z,39.40
2019-01-30T20:04:45.635Z,39.30
2019-01-30T20:07:14.769Z,39.30
2019-01-30T20:09:37.995Z,39.30
2019-01-30T20:12:04.148Z,39.30
2019-01-30T20:14:34.448Z,40.00
2019-01-30T20:17:00.605Z,39.40
2019-01-30T20:19:26.758Z,39.40
2019-01-30T20:21:52.907Z,39.40
2019-01-30T20:24:19.048Z,39.40
2019-01-30T20:26:45.196Z,39.40
2019-01-30T20:29:12.120Z,39.50
2019-01-30T20:31:38.272Z,39.40
2019-01-30T20:34:10.353Z,39.50
2019-01-30T20:36:30.608Z,39.40
2019-01-30T20:38:56.747Z,39.40
2019-01-30T20:41:22.916Z,39.40
2019-01-30T20:43:49.069Z,39.40
2019-01-30T20:46:15.245Z,39.40
2019-01-30T20:48:47.233Z,39.40
2019-01-30T20:51:07.621Z,39.50
2019-01-30T20:53:33.776Z,40.20
2019-01-30T20:55:59.937Z,39.40
2019-01-30T20:58:26.116Z,39.40
2019-01-30T21:00:52.281Z,40.10
2019-01-30T21:03:18.443Z,39.40
2019-01-30T21:05:45.155Z,39.50
2019-01-30T21:08:10.793Z,39.40
2019-01-30T21:10:36.941Z,39.50
2019-01-30T21:13:03.881Z,39.50
2019-01-30T21:15:30.033Z,39.60
2019-01-30T21:17:56.202Z,39.60
2019-01-30T21:20:22.355Z,39.60
2019-01-30T21:22:48.512Z,39.50
2019-01-30T21:25:14.664Z,39.60
2019-01-30T21:27:40.828Z,39.50
2019-01-30T21:30:06.967Z,39.50
2019-01-30T21:32:33.160Z,39.60
2019-01-30T21:34:59.313Z,39.50
2019-01-30T21:37:25.468Z,39.50
2019-01-30T21:39:51.617Z,39.50
2019-01-30T21:42:17.770Z,39.50
2019-01-30T21:44:43.921Z,39.60
2019-01-30T21:47:10.081Z,39.60
2019-01-30T21:49:36.232Z,39.50
2019-01-30T21:52:02.380Z,39.60
2019-01-30T21:54:28.529Z,39.60
2019-01-30T21:56:54.669Z,39.60
2019-01-30T21:59:20.825Z,39.60
2019-01-30T22:01:46.971Z,39.60
2019-01-30T22:04:13.116Z,39.60
2019-01-30T22:06:39.265Z,39.60
2019-01-30T22:09:05.412Z,39.60
2019-01-30T22:11:31.570Z,39.70
2019-01-30T22:13:57.738Z,39.70
2019-01-30T22:16:23.892Z,39.60
2019-01-30T22:18:50.827Z,39.70
2019-01-30T22:21:16.985Z,39.70
2019-01-30T22:23:43.139Z,39.70
2019-01-30T22:26:09.284Z,39.70
2019-01-30T22:28:35.448Z,39.70
2019-01-30T22:31:02.356Z,39.90
2019-01-30T22:33:28.624Z,39.70
2019-01-30T22:35:54.702Z,39.60
2019-01-30T22:38:20.853Z,39.70
2019-01-30T22:40:47.014Z,39.80
2019-01-30T22:43:13.929Z,39.70
2019-01-30T22:45:40.100Z,39.70
2019-01-30T22:48:06.255Z,39.70
2019-01-30T22:50:32.402Z,39.70
2019-01-30T22:52:58.553Z,39.70
2019-01-30T22:55:24.708Z,39.80
2019-01-30T22:57:51.513Z,39.80
2019-01-30T23:00:17.048Z,39.70
2019-01-30T23:02:43.200Z,39.70
2019-01-30T23:05:09.517Z,39.70
2019-01-30T23:07:35.688Z,39.70
2019-01-30T23:10:02.273Z,39.80
2019-01-30T23:12:28.428Z,39.70
2019-01-30T23:14:54.599Z,39.80
2019-01-30T23:17:20.755Z,39.80
2019-01-30T23:19:46.933Z,39.90
2019-01-30T23:22:13.078Z,39.80
2019-01-30T23:24:39.233Z,39.80
2019-01-30T23:27:05.389Z,39.80
2019-01-30T23:29:31.541Z,39.80
2019-01-30T23:31:57.697Z,39.90
2019-01-30T23:34:23.846Z,39.60
2019-01-30T23:36:51.113Z,39.80
2019-01-30T23:39:17.272Z,39.90
2019-01-30T23:41:43.420Z,39.90
2019-01-30T23:44:09.576Z,39.90
2019-01-30T23:46:35.747Z,39.90
2019-01-30T23:49:01.906Z,40.00
2019-01-30T23:51:28.052Z,40.00
2019-01-30T23:53:54.203Z,40.00
2019-01-30T23:56:20.376Z,39.90
2019-01-30T23:58:46.533Z,40.00
